createdAt,value
2019-01-06T00:00:01.405Z,31.90
2019-01-06T00:02:52.610Z,32.53
2019-01-06T00:05:51.099Z,27.58
2019-01-06T00:08:47.727Z,32.04
2019-01-06T00:11:36.285Z,31.03
2019-01-06T00:14:37.588Z,28.47
2019-01-06T00:17:39.216Z,30.03
2019-01-06T00:20:27.185Z,34.53
2019-01-06T00:23:19.458Z,29.27
2019-01-06T00:26:08.884Z,26.90
2019-01-06T00:28:59.337Z,28.43
2019-01-06T00:31:51.662Z,30.00
2019-01-06T00:34:41.039Z,34.17
2019-01-06T00:37:30.395Z,26.57
2019-01-06T00:40:18.493Z,31.30
2019-01-06T00:43:12.191Z,29.07
2019-01-06T00:46:00.198Z,27.10
2019-01-06T00:48:45.472Z,28.17
2019-01-06T00:51:35.176Z,32.13
2019-01-06T00:54:42.783Z,33.57
2019-01-06T00:57:30.868Z,34.67
2019-01-06T01:00:32.635Z,35.00
2019-01-06T01:03:13.515Z,35.35
2019-01-06T01:06:02.801Z,37.53
2019-01-06T01:08:53.497Z,33.23
2019-01-06T01:11:48.933Z,37.45
2019-01-06T01:14:38.441Z,34.68
2019-01-06T01:17:26.671Z,34.73
2019-01-06T01:20:16.971Z,35.23
2019-01-06T01:23:05.157Z,41.05
2019-01-06T01:25:57.422Z,40.52
2019-01-06T01:28:46.799Z,34.57
2019-01-06T01:31:35.771Z,38.40
2019-01-06T01:34:30.912Z,36.10
2019-01-06T01:37:20.225Z,38.73
2019-01-06T01:40:15.880Z,37.37
2019-01-06T01:43:07.290Z,30.33
2019-01-06T01:46:01.066Z,38.13
2019-01-06T01:48:55.168Z,33.93
2019-01-06T01:51:43.084Z,35.70
2019-01-06T01:54:31.461Z,36.50
2019-01-06T01:57:36.715Z,38.24
2019-01-06T02:00:26.505Z,34.57
2019-01-06T02:03:33.820Z,40.25
2019-01-06T02:06:24.105Z,37.45
2019-01-06T02:09:09.286Z,36.20
2019-01-06T02:11:58.526Z,36.77
2019-01-06T02:14:41.483Z,37.42
2019-01-06T02:17:29.144Z,39.17
2019-01-06T02:20:24.897Z,35.40
2019-01-06T02:23:12.831Z,36.17
2019-01-06T02:26:05.644Z,38.00
2019-01-06T02:28:53.953Z,36.37
2019-01-06T02:31:46.639Z,36.65
2019-01-06T02:34:45.041Z,41.83
2019-01-06T02:37:36.066Z,33.97
2019-01-06T02:40:24.443Z,34.77
2019-01-06T02:43:20.266Z,35.70
2019-01-06T02:46:11.261Z,39.18
2019-01-06T02:49:00.743Z,40.45
2019-01-06T02:51:51.240Z,34.30
2019-01-06T02:54:41.610Z,35.13
2019-01-06T02:57:30.104Z,38.90
2019-01-06T03:00:18.472Z,42.65
2019-01-06T03:03:07.715Z,36.37
2019-01-06T03:06:00.058Z,33.73
2019-01-06T03:08:52.382Z,37.20
2019-01-06T03:11:44.778Z,33.80
2019-01-06T03:14:40.497Z,31.17
2019-01-06T03:17:29.481Z,32.85
2019-01-06T03:20:32.093Z,39.13
2019-01-06T03:23:36.872Z,34.03
2019-01-06T03:26:24.709Z,32.87
2019-01-06T03:29:16.018Z,31.63
2019-01-06T03:32:04.493Z,31.57
2019-01-06T03:34:57.190Z,33.28
2019-01-06T03:37:44.928Z,30.03
2019-01-06T03:40:46.407Z,26.70
2019-01-06T03:43:38.586Z,27.23
2019-01-06T03:46:30.999Z,30.13
2019-01-06T03:49:19.022Z,28.50
2019-01-06T03:52:07.232Z,27.47
2019-01-06T03:55:03.996Z,29.77
2019-01-06T03:58:02.405Z,32.30
2019-01-06T04:00:50.468Z,33.30
2019-01-06T04:03:38.821Z,26.50
2019-01-06T04:06:31.163Z,27.60
2019-01-06T04:09:22.001Z,28.70
2019-01-06T04:12:11.396Z,27.73
2019-01-06T04:15:04.601Z,26.33
2019-01-06T04:17:53.056Z,28.03
2019-01-06T04:20:49.682Z,31.80
2019-01-06T04:23:39.371Z,27.50
2019-01-06T04:26:31.844Z,25.64
2019-01-06T04:29:28.369Z,25.10
2019-01-06T04:32:16.804Z,26.37
2019-01-06T04:34:58.488Z,23.10
2019-01-06T04:37:56.923Z,24.63
2019-01-06T04:40:46.515Z,24.70
2019-01-06T04:43:35.000Z,26.07
2019-01-06T04:46:23.059Z,25.70
2019-01-06T04:49:15.833Z,23.27
2019-01-06T04:52:04.077Z,25.30
2019-01-06T04:54:50.052Z,22.27
2019-01-06T04:57:37.788Z,21.67
2019-01-06T05:00:45.833Z,27.50
2019-01-06T05:03:33.453Z,25.97
2019-01-06T05:06:25.731Z,28.97
2019-01-06T05:09:15.846Z,19.07
2019-01-06T05:12:05.427Z,22.87
2019-01-06T05:15:00.634Z,19.87
2019-01-06T05:17:48.702Z,27.50
2019-01-06T05:20:41.024Z,25.80
2019-01-06T05:23:46.063Z,27.13
2019-01-06T05:26:34.489Z,22.82
2019-01-06T05:29:36.399Z,23.17
2019-01-06T05:32:25.906Z,27.90
2019-01-06T05:35:14.248Z,27.07
2019-01-06T05:38:03.530Z,27.87
2019-01-06T05:40:51.618Z,24.23
2019-01-06T05:43:40.533Z,21.57
2019-01-06T05:46:33.027Z,23.57
2019-01-06T05:49:22.447Z,25.87
2019-01-06T05:52:14.265Z,22.70
2019-01-06T05:55:02.748Z,24.30
2019-01-06T05:57:54.816Z,27.40
2019-01-06T06:00:44.237Z,33.13
2019-01-06T06:03:32.583Z,27.90
2019-01-06T06:06:17.421Z,29.90
2019-01-06T06:09:07.519Z,30.90
2019-01-06T06:11:57.791Z,33.78
2019-01-06T06:14:59.141Z,39.10
2019-01-06T06:18:05.448Z,26.50
2019-01-06T06:21:16.625Z,24.53
2019-01-06T06:24:00.169Z,26.93
2019-01-06T06:27:03.923Z,27.53
2019-01-06T06:30:05.230Z,29.27
2019-01-06T06:32:56.258Z,26.20
2019-01-06T06:36:02.487Z,24.63
2019-01-06T06:38:45.950Z,23.17
2019-01-06T06:41:38.483Z,25.17
2019-01-06T06:44:33.754Z,25.23
2019-01-06T06:47:29.009Z,27.00
2019-01-06T06:50:37.263Z,22.53
2019-01-06T06:53:25.544Z,26.23
2019-01-06T06:56:23.640Z,25.40
2019-01-06T06:59:02.138Z,23.20
2019-01-06T07:02:28.310Z,29.23
2019-01-06T07:05:17.744Z,25.90
2019-01-06T07:08:16.281Z,24.37
2019-01-06T07:11:15.763Z,22.77
2019-01-06T07:14:05.272Z,26.45
2019-01-06T07:17:49.035Z,31.17
2019-01-06T07:20:41.208Z,22.60
2019-01-06T07:23:29.093Z,34.03
2019-01-06T07:26:18.032Z,24.87
2019-01-06T07:29:06.402Z,29.20
2019-01-06T07:32:04.837Z,28.40
2019-01-06T07:35:00.670Z,28.13
2019-01-06T07:38:07.259Z,31.93
2019-01-06T07:41:02.596Z,29.73
2019-01-06T07:43:49.819Z,29.00
2019-01-06T07:46:42.621Z,32.47
2019-01-06T07:49:30.787Z,29.20
2019-01-06T07:52:25.090Z,31.52
2019-01-06T07:55:12.237Z,32.13
2019-01-06T07:58:00.690Z,26.63
2019-01-06T08:00:48.478Z,29.93
2019-01-06T08:03:42.499Z,29.72
2019-01-06T08:06:31.699Z,30.12
2019-01-06T08:09:20.932Z,29.80
2019-01-06T08:12:19.094Z,30.90
2019-01-06T08:15:07.504Z,28.47
2019-01-06T08:18:17.195Z,33.90
2019-01-06T08:21:06.449Z,32.83
2019-01-06T08:23:56.263Z,31.05
2019-01-06T08:26:44.733Z,29.27
2019-01-06T08:29:34.404Z,26.73
2019-01-06T08:32:28.192Z,27.33
2019-01-06T08:35:16.646Z,30.32
2019-01-06T08:38:15.687Z,29.50
2019-01-06T08:41:14.152Z,30.03
2019-01-06T08:44:09.880Z,30.27
2019-01-06T08:46:58.158Z,31.57
2019-01-06T08:49:48.594Z,30.13
2019-01-06T08:52:39.485Z,30.97
2019-01-06T08:55:28.015Z,25.33
2019-01-06T08:58:27.905Z,27.83
2019-01-06T09:01:23.503Z,26.23
2019-01-06T09:04:18.882Z,30.27
2019-01-06T09:07:23.722Z,22.23
2019-01-06T09:10:11.723Z,23.23
2019-01-06T09:13:01.218Z,24.80
2019-01-06T09:15:49.712Z,22.98
2019-01-06T09:18:45.791Z,25.10
2019-01-06T09:21:35.391Z,26.73
2019-01-06T09:24:38.187Z,22.83
2019-01-06T09:27:31.981Z,23.73
2019-01-06T09:30:33.456Z,18.73
2019-01-06T09:33:21.535Z,22.17
2019-01-06T09:36:20.162Z,21.52
2019-01-06T09:39:24.580Z,22.50
2019-01-06T09:42:06.704Z,20.37
2019-01-06T09:45:13.959Z,20.60
2019-01-06T09:48:03.324Z,24.67
2019-01-06T09:50:51.343Z,18.43
2019-01-06T09:53:39.723Z,18.93
2019-01-06T09:56:28.981Z,19.80
2019-01-06T09:59:27.365Z,15.83
2019-01-06T10:02:26.145Z,18.63
2019-01-06T10:05:15.557Z,20.40
2019-01-06T10:08:11.905Z,20.70
2019-01-06T10:11:00.095Z,16.97
2019-01-06T10:14:09.219Z,19.10
2019-01-06T10:16:57.297Z,15.93
2019-01-06T10:19:46.824Z,17.13
2019-01-06T10:22:48.077Z,19.07
2019-01-06T10:25:40.531Z,18.43
2019-01-06T10:28:30.422Z,18.23
2019-01-06T10:31:22.577Z,18.10
2019-01-06T10:34:27.706Z,18.62
2019-01-06T10:37:26.729Z,20.32
2019-01-06T10:40:16.207Z,22.77
2019-01-06T10:43:14.726Z,15.77
2019-01-06T10:46:13.100Z,18.87
2019-01-06T10:49:01.535Z,17.57
2019-01-06T10:52:02.982Z,24.30
2019-01-06T10:54:58.510Z,17.83
2019-01-06T10:57:48.635Z,17.32
2019-01-06T11:00:36.840Z,17.70
2019-01-06T11:03:29.504Z,14.77
2019-01-06T11:06:17.421Z,18.13
2019-01-06T11:09:08.116Z,19.70
2019-01-06T11:11:57.892Z,22.15
2019-01-06T11:14:47.005Z,14.80
2019-01-06T11:17:40.377Z,21.03
2019-01-06T11:20:34.788Z,16.33
2019-01-06T11:23:22.648Z,15.93
2019-01-06T11:26:17.909Z,16.43
2019-01-06T11:29:07.519Z,17.30
2019-01-06T11:31:58.077Z,16.87
2019-01-06T11:34:53.207Z,12.87
2019-01-06T11:37:36.798Z,14.93
2019-01-06T11:40:35.666Z,15.53
2019-01-06T11:43:25.032Z,18.75
2019-01-06T11:46:14.988Z,14.70
2019-01-06T11:49:03.330Z,17.80
2019-01-06T11:51:53.204Z,14.10
2019-01-06T11:54:57.834Z,11.43
2019-01-06T11:57:55.946Z,17.07
2019-01-06T12:00:44.227Z,15.10
2019-01-06T12:03:44.035Z,14.23
2019-01-06T12:06:32.454Z,12.05
2019-01-06T12:09:20.807Z,15.07
2019-01-06T12:12:19.032Z,15.80
2019-01-06T12:15:25.166Z,11.63
2019-01-06T12:18:35.867Z,15.53
2019-01-06T12:21:23.968Z,11.60
2019-01-06T12:24:25.517Z,14.33
2019-01-06T12:27:33.202Z,13.83
2019-01-06T12:30:25.882Z,12.50
2019-01-06T12:33:24.218Z,13.83
2019-01-06T12:36:20.528Z,12.27
2019-01-06T12:39:08.623Z,13.93
2019-01-06T12:42:09.134Z,10.48
2019-01-06T12:45:11.199Z,11.33
2019-01-06T12:48:16.099Z,10.57
2019-01-06T12:51:05.747Z,11.13
2019-01-06T12:53:59.576Z,15.47
2019-01-06T12:56:51.918Z,13.27
2019-01-06T12:59:39.710Z,5.60
2019-01-06T13:02:29.339Z,16.30
2019-01-06T13:05:19.807Z,12.80
2019-01-06T13:08:22.520Z,8.12
2019-01-06T13:11:12.587Z,14.43
2019-01-06T13:14:07.568Z,10.20
2019-01-06T13:16:59.994Z,12.27
2019-01-06T13:19:48.203Z,11.13
2019-01-06T13:22:37.480Z,15.78
2019-01-06T13:25:27.246Z,16.27
2019-01-06T13:28:15.482Z,18.70
2019-01-06T13:31:03.295Z,13.50
2019-01-06T13:33:52.598Z,17.62
2019-01-06T13:36:41.931Z,13.30
2019-01-06T13:39:42.156Z,15.97
2019-01-06T13:42:32.118Z,16.40
2019-01-06T13:45:26.621Z,13.20
2019-01-06T13:48:14.686Z,11.30
2019-01-06T13:50:59.852Z,10.93
2019-01-06T13:54:04.518Z,11.83
2019-01-06T13:56:52.746Z,11.57
2019-01-06T13:59:51.602Z,13.23
2019-01-06T14:02:48.860Z,11.87
2019-01-06T14:05:50.532Z,11.53
2019-01-06T14:08:38.150Z,14.60
2019-01-06T14:15:02.676Z,13.73
2019-01-06T14:17:58.191Z,14.83
2019-01-06T14:21:00.023Z,14.13
2019-01-06T14:23:57.586Z,13.57
2019-01-06T14:26:59.178Z,11.97
2019-01-06T14:29:51.791Z,11.90
2019-01-06T14:32:45.431Z,14.47
2019-01-06T14:35:51.211Z,13.60
2019-01-06T14:38:33.550Z,9.07
2019-01-06T14:41:21.991Z,16.07
2019-01-06T14:44:20.868Z,8.70
2019-01-06T14:47:25.775Z,11.18
2019-01-06T14:50:16.559Z,12.35
2019-01-06T14:53:10.789Z,18.10
2019-01-06T14:56:14.933Z,12.70
2019-01-06T14:59:00.343Z,12.93
2019-01-06T15:01:50.893Z,12.83
2019-01-06T15:04:40.463Z,11.23
2019-01-06T15:07:44.715Z,11.40
2019-01-06T15:10:43.430Z,12.23
2019-01-06T15:13:30.201Z,10.15
2019-01-06T15:16:25.842Z,11.38
2019-01-06T15:19:27.667Z,10.17
2019-01-06T15:22:12.778Z,13.17
2019-01-06T15:25:02.343Z,10.33
2019-01-06T15:27:51.665Z,13.97
2019-01-06T15:30:40.238Z,11.35
2019-01-06T15:33:22.265Z,13.15
2019-01-06T15:36:21.073Z,11.10
2019-01-06T15:39:10.339Z,14.30
2019-01-06T15:41:59.034Z,12.35
2019-01-06T15:44:51.361Z,11.22
2019-01-06T15:47:55.902Z,13.90
2019-01-06T15:50:57.567Z,13.77
2019-01-06T15:53:47.120Z,11.53
2019-01-06T15:56:44.028Z,13.47
2019-01-06T15:59:33.433Z,13.73
2019-01-06T16:02:27.779Z,14.85
2019-01-06T16:05:17.171Z,16.73
2019-01-06T16:08:18.531Z,16.77
2019-01-06T16:11:23.002Z,20.30
2019-01-06T16:14:19.072Z,20.18
2019-01-06T16:17:07.373Z,16.23
2019-01-06T16:20:05.847Z,18.43
2019-01-06T16:22:55.446Z,20.43
2019-01-06T16:26:04.947Z,18.57
2019-01-06T16:28:54.379Z,17.02
2019-01-06T16:31:40.388Z,22.67
2019-01-06T16:34:28.886Z,23.07
2019-01-06T16:37:17.840Z,20.30
2019-01-06T16:40:09.930Z,25.23
2019-01-06T16:43:13.033Z,22.17
2019-01-06T16:46:00.883Z,22.37
2019-01-06T16:48:51.949Z,21.90
2019-01-06T16:51:44.554Z,28.12
2019-01-06T16:54:33.425Z,23.43
2019-01-06T16:57:26.021Z,24.30
2019-01-06T17:00:14.622Z,24.17
2019-01-06T17:03:22.625Z,26.94
2019-01-06T17:06:02.357Z,30.53
2019-01-06T17:09:01.863Z,29.95
2019-01-06T17:12:00.359Z,31.70
2019-01-06T17:14:48.364Z,36.93
2019-01-06T17:17:37.954Z,35.25
2019-01-06T17:20:27.527Z,35.70
2019-01-06T17:23:17.989Z,39.73
2019-01-06T17:26:12.316Z,39.58
2019-01-06T17:29:08.240Z,37.73
2019-01-06T17:31:56.533Z,43.97
2019-01-06T17:34:44.729Z,36.70
2019-01-06T17:37:38.559Z,37.33
2019-01-06T17:40:27.978Z,37.17
2019-01-06T17:43:32.641Z,36.73
2019-01-06T17:46:26.625Z,41.10
2019-01-06T17:49:16.213Z,35.93
2019-01-06T17:52:01.346Z,40.87
2019-01-06T17:54:50.068Z,39.87
2019-01-06T17:57:39.440Z,42.95
2019-01-06T18:00:48.048Z,43.30
2019-01-06T18:03:37.398Z,39.22
2019-01-06T18:06:26.787Z,46.23
2019-01-06T18:09:20.402Z,50.17
2019-01-06T18:12:07.131Z,49.00
2019-01-06T18:14:56.785Z,52.73
2019-01-06T18:17:45.315Z,46.67
2019-01-06T18:20:40.813Z,46.70
2019-01-06T18:23:29.423Z,51.60
2019-01-06T18:26:20.032Z,52.40
2019-01-06T18:29:09.505Z,54.98
2019-01-06T18:31:57.340Z,53.93
2019-01-06T18:34:57.917Z,41.03
2019-01-06T18:37:46.309Z,44.60
2019-01-06T18:40:35.889Z,51.83
2019-01-06T18:43:25.661Z,50.00
2019-01-06T18:46:18.161Z,48.50
2019-01-06T18:49:25.844Z,50.83
2019-01-06T18:52:15.539Z,49.33
2019-01-06T18:55:07.557Z,50.00
2019-01-06T18:58:06.091Z,53.57
2019-01-06T19:00:54.333Z,51.87
2019-01-06T19:03:43.394Z,48.33
2019-01-06T19:06:34.694Z,49.03
2019-01-06T19:09:25.661Z,50.50
2019-01-06T19:12:33.176Z,55.90
2019-01-06T19:15:46.828Z,52.93
2019-01-06T19:18:33.320Z,56.53
2019-01-06T19:21:35.307Z,59.47
2019-01-06T19:24:23.490Z,65.60
2019-01-06T19:27:28.219Z,58.15
2019-01-06T19:30:34.943Z,54.60
2019-01-06T19:33:29.968Z,56.70
2019-01-06T19:36:25.458Z,57.47
2019-01-06T19:39:18.460Z,59.95
2019-01-06T19:42:08.361Z,56.76
2019-01-06T19:45:09.898Z,57.63
2019-01-06T19:48:05.353Z,62.97
2019-01-06T19:50:54.828Z,47.70
2019-01-06T19:53:51.487Z,56.70
2019-01-06T19:56:40.030Z,62.17
2019-01-06T19:59:34.860Z,58.72
2019-01-06T20:02:23.331Z,59.90
2019-01-06T20:05:28.158Z,61.30
2019-01-06T20:08:29.486Z,61.50
2019-01-06T20:11:17.614Z,60.70
2019-01-06T20:14:07.183Z,58.47
2019-01-06T20:16:56.744Z,56.30
2019-01-06T20:19:45.765Z,52.40
2019-01-06T20:22:47.165Z,54.60
2019-01-06T20:25:34.423Z,56.77
2019-01-06T20:28:38.966Z,54.57
2019-01-06T20:31:28.582Z,48.57
2019-01-06T20:34:24.406Z,60.52
2019-01-06T20:37:13.589Z,62.17
2019-01-06T20:40:04.188Z,52.83
2019-01-06T20:42:50.209Z,50.63
2019-01-06T20:45:54.939Z,50.87
2019-01-06T20:48:59.741Z,47.90
2019-01-06T20:52:00.252Z,47.07
2019-01-06T20:54:58.836Z,44.97
2019-01-06T20:57:47.128Z,49.50
2019-01-06T21:00:31.569Z,46.73
2019-01-06T21:03:22.847Z,49.40
2019-01-06T21:06:17.901Z,45.20
2019-01-06T21:09:09.415Z,44.13
2019-01-06T21:12:04.823Z,41.87
2019-01-06T21:14:43.207Z,46.15
2019-01-06T21:17:23.833Z,47.13
2019-01-06T21:20:15.002Z,45.97
2019-01-06T21:23:21.269Z,44.63
2019-01-06T21:26:10.674Z,44.17
2019-01-06T21:28:58.455Z,47.07
2019-01-06T21:31:43.628Z,50.90
2019-01-06T21:34:31.629Z,46.27
2019-01-06T21:37:39.703Z,42.70
2019-01-06T21:40:27.054Z,40.40
2019-01-06T21:43:15.429Z,44.63
2019-01-06T21:46:04.912Z,39.82
2019-01-06T21:48:53.406Z,43.13
2019-01-06T21:51:38.628Z,41.33
2019-01-06T21:54:27.006Z,40.12
2019-01-06T21:57:23.685Z,51.23
2019-01-06T22:00:16.166Z,41.10
2019-01-06T22:03:05.775Z,41.03
2019-01-06T22:05:58.028Z,48.03
2019-01-06T22:09:02.843Z,42.97
2019-01-06T22:11:53.646Z,43.58
2019-01-06T22:15:03.163Z,44.30
2019-01-06T22:17:51.014Z,50.10
2019-01-06T22:20:43.274Z,48.90
2019-01-06T22:23:38.767Z,53.23
2019-01-06T22:26:28.007Z,45.90
2019-01-06T22:29:29.207Z,46.73
2019-01-06T22:32:27.519Z,47.90
2019-01-06T22:35:29.021Z,44.00
2019-01-06T22:38:17.388Z,50.07
2019-01-06T22:41:17.728Z,48.00
2019-01-06T22:44:10.361Z,52.60
2019-01-06T22:46:59.199Z,56.42
2019-01-06T22:50:01.790Z,51.46
2019-01-06T22:53:06.467Z,49.33
2019-01-06T22:56:10.929Z,44.27
2019-01-06T22:59:06.404Z,53.00
2019-01-06T23:01:58.800Z,53.85
2019-01-06T23:04:45.921Z,54.03
2019-01-06T23:07:51.078Z,53.30
2019-01-06T23:10:39.194Z,51.00
2019-01-06T23:13:40.866Z,52.27
2019-01-06T23:16:24.975Z,52.33
2019-01-06T23:19:27.593Z,53.38
2019-01-06T23:22:15.616Z,50.30
2019-01-06T23:25:14.126Z,54.70
2019-01-06T23:28:04.827Z,55.43
2019-01-06T23:30:53.087Z,52.07
2019-01-06T23:33:41.263Z,53.67
2019-01-06T23:36:42.902Z,53.77
2019-01-06T23:39:38.914Z,58.90
2019-01-06T23:42:33.712Z,67.25
2019-01-06T23:45:23.225Z,59.93
2019-01-06T23:48:22.049Z,63.17
2019-01-06T23:51:05.966Z,63.03
2019-01-06T23:53:54.156Z,52.60
2019-01-06T23:56:43.593Z,68.38
2019-01-06T23:59:32.880Z,64.10
